Kezdőlap
METAR-TAF:

METAR-TAF

Repülőterek :

Barcelona, Venezuela

földrajzi szélesség: 10-07N, földrajzi hosszúság: 064-41W, magasság: 7 m

METAR: hiányzik

Idő: 02:16 (06:16 UTC)

Előrejelzés

A jelentés 2 órával és 16 perccel ezelõtt készült, 04:00 UTC
Az előrejelzés 13-én 06 óra UTC és 14-én 06 óra UTC között érvényes
Északkeleti szél 6 kt
Látótávolság 10 km, vagy több
Szórványos felhőzet 1600 lábon
Szakadozott felhőzet 1300 lábon
13-én 05 óra UTC és 13-én 07 óra UTC között ideiglenes
Keleti szél 2 kt
Látótávolság: 9000 m
Szórványos felhőzet 2000 lábon
Szakadozott felhőzet 1300 lábon
enyhe szitálás,

TAF: SVBC 130400Z 1306/1406 05006KT 9999 SCT016 BKN013 TX32/1319Z TN24/1307Z TEMPO 1305/1307 09002KT 9000 -DZ SCT020 BKN013

Meteorológiai megfigyelések és előrejelzések több, mint 4000 repülőtéren (METAR és TAF jelentéseket).

A térképen piros és sárga pontok jelzik az elérhető meteorológiai állomásokat.

Mozgassa az egeret a pont fölött, hogy megjelenjen az állomás neve.

Azután kattintson az időjárási megfigyelések és előrejelzések megtekintéséhez.

A térkép megváltoztatása: kattintson a fekete keresztel jelölt zöld gombra ráközelítéshez, a vonallal jelölt zöld gombra távolításhoz, vagy a zöld nyilakra a szomszédos térképek eléréséhez.


METAR-TAF: